Time;durP1;ratioP1;P1;durP2;ratioP2;P2;SDS_P1;SDS_P2;PMS_P1;PMS_P2;Temp;Humidity;BMP_temperature;BMP_pressure;BME280_temperature;BME280_humidity;BME280_pressure;Samples;Min_cycle;Max_cycle;Signal;HPM_P1;HPM_P2
2022/03/16 00:00:10;;;;;;;26.13;18.55;;;;;;;;;;4987281;28;20049;-77
2022/03/16 00:02:35;;;;;;;26.27;18.30;;;;;;;;;;5021272;28;20080;-79
2022/03/16 00:05:01;;;;;;;27.90;18.25;;;;;;;;;;4988450;28;20026;-78
2022/03/16 00:07:26;;;;;;;26.20;17.42;;;;;;;;;;4988062;28;20440;-85
2022/03/16 00:09:52;;;;;;;26.25;17.42;;;;;;;;;;4989268;28;20541;-78
2022/03/16 00:12:18;;;;;;;25.92;17.85;;;;;;;;;;4990554;28;20068;-80
2022/03/16 00:14:43;;;;;;;26.85;17.42;;;;;;;;;;5019640;28;20488;-78
2022/03/16 00:17:09;;;;;;;28.15;18.25;;;;;;;;;;4991421;28;20034;-78
2022/03/16 00:19:35;;;;;;;24.77;17.30;;;;;;;;;;4987546;28;20375;-79
2022/03/16 00:22:03;;;;;;;27.95;18.80;;;;;;;;;;4988568;28;20034;-77
2022/03/16 00:24:28;;;;;;;27.63;18.55;;;;;;;;;;5017893;28;20380;-79
2022/03/16 00:26:53;;;;;;;29.92;18.17;;;;;;;;;;4991429;28;20034;-84
2022/03/16 00:29:19;;;;;;;26.15;17.25;;;;;;;;;;4986991;28;20022;-81
2022/03/16 00:31:45;;;;;;;27.15;17.75;;;;;;;;;;4985298;28;20036;-78
2022/03/16 00:34:10;;;;;;;25.23;18.20;;;;;;;;;;4986500;28;20030;-77
2022/03/16 00:36:36;;;;;;;26.73;18.88;;;;;;;;;;5016277;28;20098;-85
2022/03/16 00:39:02;;;;;;;23.73;17.33;;;;;;;;;;4986182;28;20041;-78
2022/03/16 00:41:28;;;;;;;25.55;17.80;;;;;;;;;;4984531;28;20050;-79
2022/03/16 00:43:53;;;;;;;26.17;18.38;;;;;;;;;;4989009;28;20138;-79
2022/03/16 00:46:19;;;;;;;28.33;18.88;;;;;;;;;;4988440;28;20522;-84
2022/03/16 00:48:45;;;;;;;28.83;18.38;;;;;;;;;;4986412;28;20426;-84
2022/03/16 00:51:10;;;;;;;28.27;18.33;;;;;;;;;;4987680;28;20026;-85
2022/03/16 00:53:36;;;;;;;29.55;18.38;;;;;;;;;;4989086;28;20093;-78
2022/03/16 00:56:02;;;;;;;29.88;19.00;;;;;;;;;;5012600;28;20034;-78
2022/03/16 00:58:28;;;;;;;28.20;18.83;;;;;;;;;;4987989;28;20026;-78
2022/03/16 01:00:54;;;;;;;28.98;19.42;;;;;;;;;;4986561;28;20031;-79
2022/03/16 01:03:19;;;;;;;25.63;18.40;;;;;;;;;;4989239;28;20034;-85
2022/03/16 01:05:46;;;;;;;28.40;19.25;;;;;;;;;;5021658;28;20030;-79
2022/03/16 01:08:12;;;;;;;28.85;18.15;;;;;;;;;;4980772;28;20049;-85
2022/03/16 01:10:37;;;;;;;27.10;18.17;;;;;;;;;;4986747;28;20061;-85
2022/03/16 01:13:03;;;;;;;29.88;18.73;;;;;;;;;;4987278;28;20037;-84
2022/03/16 01:15:28;;;;;;;27.33;18.42;;;;;;;;;;4986465;28;20698;-77
2022/03/16 01:17:53;;;;;;;28.83;18.08;;;;;;;;;;4984847;28;20072;-78
2022/03/16 01:20:19;;;;;;;25.20;17.60;;;;;;;;;;4985647;28;20544;-79
2022/03/16 01:22:45;;;;;;;25.45;16.85;;;;;;;;;;4991335;28;20117;-78
2022/03/16 01:25:11;;;;;;;26.35;18.42;;;;;;;;;;5015877;28;20026;-77
2022/03/16 01:27:37;;;;;;;29.67;18.23;;;;;;;;;;4984107;28;20054;-80
2022/03/16 01:30:03;;;;;;;27.30;17.55;;;;;;;;;;5016192;28;20502;-80
2022/03/16 01:32:28;;;;;;;28.05;17.90;;;;;;;;;;4988258;28;20054;-79
2022/03/16 01:34:54;;;;;;;24.48;17.42;;;;;;;;;;5012313;28;20045;-79
2022/03/16 01:37:19;;;;;;;28.10;18.00;;;;;;;;;;4979856;28;22034;-80
2022/03/16 01:39:44;;;;;;;26.92;17.88;;;;;;;;;;4981388;28;20034;-78
2022/03/16 01:42:09;;;;;;;27.95;17.85;;;;;;;;;;4984466;28;20058;-79
2022/03/16 01:44:50;;;;;;;27.58;18.13;;;;;;;;;;4984055;28;20078;-78
2022/03/16 01:47:18;;;;;;;28.08;18.42;;;;;;;;;;4987926;28;20030;-84
2022/03/16 01:49:44;;;;;;;28.10;18.80;;;;;;;;;;4981404;28;20081;-80
2022/03/16 01:52:11;;;;;;;27.80;18.45;;;;;;;;;;5001273;28;20391;-78
2022/03/16 01:54:39;;;;;;;25.30;16.92;;;;;;;;;;5013851;28;20054;-79
2022/03/16 01:57:04;;;;;;;25.55;17.13;;;;;;;;;;4986352;28;20053;-79
2022/03/16 01:59:30;;;;;;;22.58;15.75;;;;;;;;;;4982030;28;20039;-77
2022/03/16 02:01:57;;;;;;;23.75;16.40;;;;;;;;;;4985101;28;20113;-77
2022/03/16 02:04:22;;;;;;;24.42;16.30;;;;;;;;;;4985589;28;20117;-78
2022/03/16 02:06:48;;;;;;;22.20;15.73;;;;;;;;;;4989752;28;20439;-79
2022/03/16 02:09:15;;;;;;;22.08;15.65;;;;;;;;;;4989149;28;20030;-80
2022/03/16 02:11:40;;;;;;;25.52;17.63;;;;;;;;;;4988764;28;20069;-79
2022/03/16 02:14:06;;;;;;;26.17;18.50;;;;;;;;;;4988657;28;20427;-79
2022/03/16 02:16:35;;;;;;;28.20;18.42;;;;;;;;;;4987146;28;20156;-84
2022/03/16 02:19:00;;;;;;;23.35;16.38;;;;;;;;;;4988995;28;20516;-78
2022/03/16 02:21:28;;;;;;;24.35;16.30;;;;;;;;;;4988894;28;20119;-78
2022/03/16 02:23:54;;;;;;;21.38;16.15;;;;;;;;;;4987711;28;21762;-76
2022/03/16 02:26:25;;;;;;;23.85;15.38;;;;;;;;;;4988441;28;20030;-76
2022/03/16 02:28:52;;;;;;;23.08;15.75;;;;;;;;;;4990239;28;20089;-79
2022/03/16 02:31:17;;;;;;;23.45;16.70;;;;;;;;;;4987626;28;20030;-78
2022/03/16 02:33:43;;;;;;;24.65;17.13;;;;;;;;;;4989865;28;20026;-77
2022/03/16 02:36:09;;;;;;;25.10;17.10;;;;;;;;;;5017028;28;20096;-78
2022/03/16 02:38:35;;;;;;;23.95;16.83;;;;;;;;;;4991267;28;20022;-78
2022/03/16 02:41:00;;;;;;;24.52;17.05;;;;;;;;;;4984879;28;20486;-78
2022/03/16 02:43:27;;;;;;;26.48;17.23;;;;;;;;;;4983831;28;20601;-77
2022/03/16 02:45:53;;;;;;;24.42;16.48;;;;;;;;;;4986413;28;20556;-80
2022/03/16 02:48:18;;;;;;;24.30;16.98;;;;;;;;;;4987650;28;20049;-78
2022/03/16 02:50:43;;;;;;;25.45;17.40;;;;;;;;;;4988630;28;20081;-77
2022/03/16 02:53:09;;;;;;;24.27;16.77;;;;;;;;;;4987994;28;20126;-84
2022/03/16 02:55:34;;;;;;;25.15;16.83;;;;;;;;;;4988173;28;20029;-78
2022/03/16 02:58:00;;;;;;;24.27;16.65;;;;;;;;;;4987883;28;20030;-79
2022/03/16 03:00:26;;;;;;;24.30;16.60;;;;;;;;;;5020254;28;20508;-83
2022/03/16 03:02:53;;;;;;;23.73;16.88;;;;;;;;;;5021645;28;20030;-78
2022/03/16 03:05:18;;;;;;;24.73;16.83;;;;;;;;;;4983546;28;20030;-78
2022/03/16 03:07:44;;;;;;;22.98;16.70;;;;;;;;;;4985047;28;20072;-78
2022/03/16 03:10:09;;;;;;;23.75;16.45;;;;;;;;;;4988885;28;20034;-79
2022/03/16 03:12:35;;;;;;;23.80;16.23;;;;;;;;;;4987029;28;20430;-78
2022/03/16 03:15:02;;;;;;;22.42;16.02;;;;;;;;;;4987204;28;20159;-78
2022/03/16 03:17:28;;;;;;;24.55;16.95;;;;;;;;;;4987517;28;20042;-78
2022/03/16 03:19:53;;;;;;;22.90;16.65;;;;;;;;;;5020198;28;20026;-84
2022/03/16 03:22:19;;;;;;;24.40;16.45;;;;;;;;;;4988676;28;20045;-79
2022/03/16 03:24:44;;;;;;;22.00;15.55;;;;;;;;;;4989592;28;20058;-79
2022/03/16 03:27:10;;;;;;;25.13;16.98;;;;;;;;;;4987652;28;20062;-79
2022/03/16 03:29:36;;;;;;;22.73;16.40;;;;;;;;;;5019118;28;20430;-79
2022/03/16 03:32:01;;;;;;;22.73;16.67;;;;;;;;;;4985451;28;20031;-79
2022/03/16 03:34:26;;;;;;;23.73;16.60;;;;;;;;;;4989972;28;20038;-77
2022/03/16 03:36:53;;;;;;;24.50;16.77;;;;;;;;;;4988081;28;20478;-78
2022/03/16 03:39:18;;;;;;;24.83;17.45;;;;;;;;;;4988809;28;20022;-79
2022/03/16 03:41:43;;;;;;;23.23;16.52;;;;;;;;;;4988043;28;20040;-84
2022/03/16 03:44:09;;;;;;;25.50;16.85;;;;;;;;;;4982269;28;20049;-78
2022/03/16 03:46:34;;;;;;;25.70;17.02;;;;;;;;;;4990791;28;20033;-79
2022/03/16 03:48:59;;;;;;;25.92;18.35;;;;;;;;;;5014808;28;20034;-79
2022/03/16 03:51:24;;;;;;;25.10;16.48;;;;;;;;;;4986655;28;20081;-84
2022/03/16 03:53:50;;;;;;;24.98;17.23;;;;;;;;;;4987028;28;20053;-84
2022/03/16 03:56:15;;;;;;;26.08;18.02;;;;;;;;;;4989168;28;20038;-79
2022/03/16 03:58:41;;;;;;;25.27;18.00;;;;;;;;;;4986053;28;20030;-85
2022/03/16 04:01:06;;;;;;;24.35;17.25;;;;;;;;;;4985754;28;20022;-85
2022/03/16 04:03:32;;;;;;;23.02;16.50;;;;;;;;;;5020592;28;20065;-79
2022/03/16 04:05:58;;;;;;;23.45;17.10;;;;;;;;;;4990835;28;20037;-79
2022/03/16 04:08:23;;;;;;;25.20;17.45;;;;;;;;;;4988328;28;20148;-79
2022/03/16 04:10:48;;;;;;;21.92;16.20;;;;;;;;;;4986759;28;20155;-80
2022/03/16 04:13:14;;;;;;;24.30;16.10;;;;;;;;;;4996216;28;20482;-84
2022/03/16 04:15:40;;;;;;;23.00;15.38;;;;;;;;;;4985801;28;20076;-77
2022/03/16 04:18:05;;;;;;;23.40;16.70;;;;;;;;;;4987195;28;20060;-77
2022/03/16 04:20:30;;;;;;;25.52;18.48;;;;;;;;;;4990092;28;20033;-77
2022/03/16 04:22:55;;;;;;;23.77;17.23;;;;;;;;;;4984469;28;20056;-78
2022/03/16 04:25:21;;;;;;;24.85;17.88;;;;;;;;;;4988842;28;20383;-79
2022/03/16 04:27:46;;;;;;;24.80;17.77;;;;;;;;;;4986533;28;20085;-79
2022/03/16 04:30:12;;;;;;;26.25;18.17;;;;;;;;;;5016154;28;20475;-77
2022/03/16 04:32:37;;;;;;;25.85;17.27;;;;;;;;;;4984503;28;20033;-79
2022/03/16 04:35:03;;;;;;;26.13;18.48;;;;;;;;;;4986114;28;20018;-85
2022/03/16 04:37:28;;;;;;;25.75;18.17;;;;;;;;;;4992818;28;20030;-78
2022/03/16 04:39:53;;;;;;;26.25;18.55;;;;;;;;;;5015811;28;20076;-79
2022/03/16 04:42:19;;;;;;;25.20;17.75;;;;;;;;;;4985845;28;20031;-79
2022/03/16 04:44:44;;;;;;;27.67;18.17;;;;;;;;;;4980580;28;20023;-83
2022/03/16 04:47:09;;;;;;;28.25;18.83;;;;;;;;;;4987780;28;20034;-83
2022/03/16 04:49:35;;;;;;;28.48;19.10;;;;;;;;;;5014866;28;20030;-84
2022/03/16 04:52:00;;;;;;;31.63;19.05;;;;;;;;;;4984476;28;20026;-78
2022/03/16 04:54:25;;;;;;;27.40;19.23;;;;;;;;;;4982092;28;20026;-78
2022/03/16 04:56:51;;;;;;;27.10;18.73;;;;;;;;;;4988528;28;20042;-84
2022/03/16 04:59:17;;;;;;;30.08;20.10;;;;;;;;;;4985898;28;20035;-83
2022/03/16 05:01:42;;;;;;;28.80;18.65;;;;;;;;;;4981823;28;20120;-81
2022/03/16 05:04:08;;;;;;;30.90;20.17;;;;;;;;;;4986887;28;20160;-84
2022/03/16 05:06:33;;;;;;;30.40;20.23;;;;;;;;;;4985715;28;20084;-79
2022/03/16 05:08:58;;;;;;;28.92;19.55;;;;;;;;;;4983829;28;20026;-77
2022/03/16 05:11:23;;;;;;;28.92;19.58;;;;;;;;;;4985133;28;20537;-79
2022/03/16 05:13:49;;;;;;;28.10;19.42;;;;;;;;;;5018360;28;20026;-79
2022/03/16 05:16:15;;;;;;;30.10;20.08;;;;;;;;;;4999906;28;20045;-79
2022/03/16 05:18:44;;;;;;;29.67;19.17;;;;;;;;;;4983272;28;20049;-79
2022/03/16 05:21:09;;;;;;;28.65;19.35;;;;;;;;;;4997539;28;20038;-82
2022/03/16 05:23:35;;;;;;;28.38;18.75;;;;;;;;;;4983143;28;20036;-77
2022/03/16 05:26:00;;;;;;;29.05;18.90;;;;;;;;;;5017918;28;20124;-78
2022/03/16 05:28:26;;;;;;;26.17;18.45;;;;;;;;;;4986208;28;20276;-80
2022/03/16 05:30:51;;;;;;;25.52;17.58;;;;;;;;;;5019007;28;20529;-83
2022/03/16 05:33:16;;;;;;;26.88;17.35;;;;;;;;;;4986499;28;20037;-79
2022/03/16 05:35:42;;;;;;;25.98;17.38;;;;;;;;;;4997862;28;20039;-79
2022/03/16 05:38:08;;;;;;;24.92;16.58;;;;;;;;;;4983408;28;20030;-83
2022/03/16 05:40:35;;;;;;;26.25;17.52;;;;;;;;;;4986912;28;20026;-83
2022/03/16 05:43:00;;;;;;;26.48;17.80;;;;;;;;;;4979588;28;20407;-79
2022/03/16 05:45:26;;;;;;;23.80;15.85;;;;;;;;;;4979297;28;20037;-77
2022/03/16 05:47:51;;;;;;;24.40;16.38;;;;;;;;;;4981852;28;20434;-77
2022/03/16 05:50:17;;;;;;;23.85;16.35;;;;;;;;;;4985513;28;20066;-78
2022/03/16 05:52:43;;;;;;;24.83;15.75;;;;;;;;;;4980994;28;20113;-79
2022/03/16 05:55:09;;;;;;;23.63;15.38;;;;;;;;;;4986525;28;20372;-77
2022/03/16 05:57:37;;;;;;;28.08;15.57;;;;;;;;;;4983485;28;20027;-78
2022/03/16 06:00:03;;;;;;;24.40;15.50;;;;;;;;;;4981654;28;20043;-77
2022/03/16 06:02:29;;;;;;;23.88;15.20;;;;;;;;;;4981137;28;20027;-79
2022/03/16 06:04:54;;;;;;;24.75;15.73;;;;;;;;;;4985383;28;20033;-80
2022/03/16 06:07:19;;;;;;;24.23;15.48;;;;;;;;;;4985961;28;20027;-78
2022/03/16 06:09:44;;;;;;;21.85;14.20;;;;;;;;;;5016357;28;20101;-78
2022/03/16 06:12:10;;;;;;;23.15;14.57;;;;;;;;;;4983100;28;20549;-78
2022/03/16 06:14:36;;;;;;;22.90;14.10;;;;;;;;;;5017861;28;20030;-84
2022/03/16 06:17:01;;;;;;;23.92;14.48;;;;;;;;;;4987027;28;20023;-84
2022/03/16 06:19:26;;;;;;;24.50;14.25;;;;;;;;;;4980449;28;20038;-79
2022/03/16 06:21:52;;;;;;;24.17;13.95;;;;;;;;;;4983824;28;20522;-78
2022/03/16 06:24:17;;;;;;;20.70;13.30;;;;;;;;;;4987063;28;20045;-80
2022/03/16 06:26:43;;;;;;;21.08;12.90;;;;;;;;;;5018680;28;20022;-76
2022/03/16 06:29:08;;;;;;;22.52;13.70;;;;;;;;;;5019939;28;20112;-83
2022/03/16 06:31:34;;;;;;;20.92;13.18;;;;;;;;;;4982850;28;20034;-78
2022/03/16 06:34:00;;;;;;;20.15;12.75;;;;;;;;;;4984696;28;20030;-83
2022/03/16 06:36:28;;;;;;;21.23;13.13;;;;;;;;;;4984387;28;20030;-77
2022/03/16 06:38:54;;;;;;;19.63;12.57;;;;;;;;;;4981518;28;20030;-78
2022/03/16 06:41:20;;;;;;;17.65;12.05;;;;;;;;;;4985409;28;20050;-78
2022/03/16 06:43:45;;;;;;;17.90;12.00;;;;;;;;;;4989358;28;20046;-79
2022/03/16 06:46:11;;;;;;;19.23;12.77;;;;;;;;;;4985574;28;20034;-85
2022/03/16 06:48:36;;;;;;;18.80;11.13;;;;;;;;;;4984357;28;20026;-78
2022/03/16 06:51:01;;;;;;;18.67;11.30;;;;;;;;;;4979258;28;20038;-79
2022/03/16 06:53:28;;;;;;;17.45;11.45;;;;;;;;;;4984631;28;20037;-77
2022/03/16 06:55:53;;;;;;;19.48;11.75;;;;;;;;;;5021744;28;20045;-77
2022/03/16 06:58:19;;;;;;;16.88;11.02;;;;;;;;;;4986590;28;20031;-83
2022/03/16 07:00:44;;;;;;;17.85;11.57;;;;;;;;;;4981485;28;20036;-80
2022/03/16 07:03:09;;;;;;;21.15;11.63;;;;;;;;;;4983058;28;20438;-84
2022/03/16 07:05:37;;;;;;;31.67;11.32;;;;;;;;;;4984712;28;20113;-77
2022/03/16 07:08:04;;;;;;;21.58;11.30;;;;;;;;;;4985510;28;20088;-79
2022/03/16 07:10:30;;;;;;;19.10;10.05;;;;;;;;;;4989095;28;20050;-79
2022/03/16 07:12:56;;;;;;;15.85;10.10;;;;;;;;;;5023398;28;20053;-85
2022/03/16 07:15:22;;;;;;;17.20;10.18;;;;;;;;;;4987928;28;20030;-76
2022/03/16 07:17:48;;;;;;;17.25;10.30;;;;;;;;;;4988819;28;20030;-79
2022/03/16 07:20:13;;;;;;;15.18;9.30;;;;;;;;;;4988968;28;20040;-80
2022/03/16 07:22:39;;;;;;;14.57;8.90;;;;;;;;;;4988397;28;20040;-80
2022/03/16 07:25:09;;;;;;;16.90;10.63;;;;;;;;;;5022155;28;20038;-76
2022/03/16 07:27:38;;;;;;;15.77;9.02;;;;;;;;;;4992697;28;20030;-77
2022/03/16 07:30:09;;;;;;;14.88;9.52;;;;;;;;;;4990779;28;20034;-77
2022/03/16 07:32:36;;;;;;;11.93;8.48;;;;;;;;;;4992859;28;20033;-77
2022/03/16 07:35:02;;;;;;;13.73;9.38;;;;;;;;;;4995314;28;20026;-84
2022/03/16 07:37:27;;;;;;;15.35;8.68;;;;;;;;;;4989417;28;20512;-84
2022/03/16 07:39:52;;;;;;;13.20;8.32;;;;;;;;;;4987264;28;20037;-76
2022/03/16 07:42:17;;;;;;;13.68;9.00;;;;;;;;;;4991162;28;20229;-79
2022/03/16 07:44:43;;;;;;;13.82;8.43;;;;;;;;;;4992944;28;20072;-80
2022/03/16 07:47:08;;;;;;;13.27;9.15;;;;;;;;;;4988628;28;20018;-79
2022/03/16 07:49:37;;;;;;;14.60;9.45;;;;;;;;;;4994336;28;20038;-76
2022/03/16 07:52:02;;;;;;;13.35;8.25;;;;;;;;;;5024377;28;20029;-76
2022/03/16 07:54:27;;;;;;;14.95;8.88;;;;;;;;;;4990468;28;20410;-78
2022/03/16 07:56:53;;;;;;;14.70;8.25;;;;;;;;;;4990432;28;20030;-77
2022/03/16 07:59:19;;;;;;;13.48;8.95;;;;;;;;;;5005101;28;20033;-80
2022/03/16 08:01:44;;;;;;;12.43;8.25;;;;;;;;;;5001753;28;20557;-84
2022/03/16 08:04:10;;;;;;;12.02;7.68;;;;;;;;;;4989355;28;20026;-78
2022/03/16 08:06:35;;;;;;;12.93;7.93;;;;;;;;;;4985928;28;20034;-85
2022/03/16 08:09:00;;;;;;;14.60;8.25;;;;;;;;;;4985169;28;20398;-85
2022/03/16 08:11:26;;;;;;;15.65;8.80;;;;;;;;;;4989861;28;20635;-77
2022/03/16 08:13:51;;;;;;;12.52;8.18;;;;;;;;;;4992080;28;20083;-80
2022/03/16 08:16:16;;;;;;;12.70;7.97;;;;;;;;;;4989354;28;20040;-78
2022/03/16 08:18:42;;;;;;;12.85;7.50;;;;;;;;;;5024633;28;20037;-77
2022/03/16 08:21:07;;;;;;;11.52;8.02;;;;;;;;;;4990419;28;20051;-76
2022/03/16 08:23:33;;;;;;;13.70;8.35;;;;;;;;;;4988593;28;20108;-79
2022/03/16 08:25:58;;;;;;;13.65;8.15;;;;;;;;;;4992843;28;20037;-79
2022/03/16 08:28:24;;;;;;;14.18;8.57;;;;;;;;;;4992382;28;20018;-81
2022/03/16 08:30:50;;;;;;;12.40;8.43;;;;;;;;;;4988650;28;20022;-86
2022/03/16 08:33:17;;;;;;;13.35;8.20;;;;;;;;;;4989355;28;20113;-78
2022/03/16 08:35:42;;;;;;;18.27;8.40;;;;;;;;;;4988982;28;20455;-80
2022/03/16 08:38:08;;;;;;;12.57;8.00;;;;;;;;;;4988415;28;20037;-79
2022/03/16 08:40:34;;;;;;;15.95;8.73;;;;;;;;;;4989364;28;20500;-81
2022/03/16 08:42:59;;;;;;;12.95;8.38;;;;;;;;;;4988892;28;20046;-77
2022/03/16 08:45:24;;;;;;;17.70;8.50;;;;;;;;;;4986155;28;20030;-80
2022/03/16 08:47:50;;;;;;;14.40;8.10;;;;;;;;;;4988855;28;20141;-81
2022/03/16 08:50:16;;;;;;;14.75;8.80;;;;;;;;;;4990157;28;20032;-87
2022/03/16 08:52:41;;;;;;;13.88;8.32;;;;;;;;;;4987594;28;20061;-86
2022/03/16 08:55:07;;;;;;;15.50;9.38;;;;;;;;;;4987269;28;20187;-80
2022/03/16 08:57:33;;;;;;;14.73;8.73;;;;;;;;;;4990803;28;20380;-90
2022/03/16 08:59:58;;;;;;;13.10;8.20;;;;;;;;;;4989750;28;20025;-80
2022/03/16 09:02:24;;;;;;;15.77;9.60;;;;;;;;;;4988271;28;20119;-83
2022/03/16 09:04:50;;;;;;;14.10;9.15;;;;;;;;;;5016117;28;20038;-80
2022/03/16 09:07:16;;;;;;;16.42;9.60;;;;;;;;;;4988175;28;20029;-79
2022/03/16 09:09:42;;;;;;;13.65;9.13;;;;;;;;;;4987754;28;20022;-80
2022/03/16 09:12:11;;;;;;;13.32;8.63;;;;;;;;;;4972459;28;20049;-79
2022/03/16 09:14:37;;;;;;;12.90;8.93;;;;;;;;;;4989711;28;20037;-83
2022/03/16 09:17:03;;;;;;;13.25;9.23;;;;;;;;;;4989046;28;20514;-81
2022/03/16 09:19:28;;;;;;;14.27;9.75;;;;;;;;;;4991810;28;20038;-81
2022/03/16 09:21:54;;;;;;;13.57;9.35;;;;;;;;;;5023918;28;20129;-81
2022/03/16 09:24:19;;;;;;;14.57;9.68;;;;;;;;;;4989839;28;20076;-86
2022/03/16 09:26:45;;;;;;;15.00;9.93;;;;;;;;;;4990571;28;20026;-80
2022/03/16 09:29:11;;;;;;;15.48;10.05;;;;;;;;;;4992245;28;20395;-80
2022/03/16 09:31:38;;;;;;;14.88;9.25;;;;;;;;;;4988610;28;20494;-88
2022/03/16 09:34:05;;;;;;;19.15;10.00;;;;;;;;;;5025193;28;20045;-80
2022/03/16 09:36:32;;;;;;;14.15;9.50;;;;;;;;;;4989489;28;20517;-78
2022/03/16 09:38:58;;;;;;;17.13;10.23;;;;;;;;;;4986918;28;20046;-80
2022/03/16 09:41:25;;;;;;;14.32;9.95;;;;;;;;;;4988086;28;20030;-80
2022/03/16 09:43:52;;;;;;;14.35;9.60;;;;;;;;;;5023102;28;20073;-78
2022/03/16 09:46:24;;;;;;;15.50;9.95;;;;;;;;;;4989058;28;20031;-78
2022/03/16 09:48:50;;;;;;;17.38;10.18;;;;;;;;;;4988181;28;20053;-79
2022/03/16 09:51:16;;;;;;;15.73;10.13;;;;;;;;;;4987017;28;20034;-78
2022/03/16 09:53:42;;;;;;;17.77;10.40;;;;;;;;;;4987411;28;20034;-87
2022/03/16 09:56:09;;;;;;;14.65;9.80;;;;;;;;;;4990501;28;20025;-78
2022/03/16 09:58:34;;;;;;;15.23;10.38;;;;;;;;;;4991467;28;20030;-80
2022/03/16 10:01:00;;;;;;;15.80;10.13;;;;;;;;;;4992480;28;20434;-80
2022/03/16 10:03:28;;;;;;;14.98;9.95;;;;;;;;;;4990434;28;20026;-85
2022/03/16 10:05:55;;;;;;;14.13;9.68;;;;;;;;;;4987693;28;20061;-81
2022/03/16 10:08:34;;;;;;;16.60;9.77;;;;;;;;;;4991148;28;20027;-84
2022/03/16 10:14:04;;;;;;;14.07;9.63;;;;;;;;;;4992023;28;20032;-80
2022/03/16 10:17:43;;;;;;;13.55;9.25;;;;;;;;;;5006460;28;20475;-81
2022/03/16 10:19:15;;;;;;;14.90;10.00;;;;;;;;;;4989680;28;20030;-86
2022/03/16 10:21:41;;;;;;;14.77;9.90;;;;;;;;;;5021856;28;20026;-80
2022/03/16 10:24:06;;;;;;;14.55;9.55;;;;;;;;;;4991723;28;20377;-79
2022/03/16 10:26:31;;;;;;;12.52;8.90;;;;;;;;;;4990886;28;20093;-80
2022/03/16 10:29:01;;;;;;;14.40;9.48;;;;;;;;;;4992140;28;20019;-79
2022/03/16 10:31:26;;;;;;;13.25;8.85;;;;;;;;;;4992928;28;20026;-78
2022/03/16 10:33:53;;;;;;;12.20;8.90;;;;;;;;;;4988309;28;20474;-80
2022/03/16 10:36:21;;;;;;;14.38;9.63;;;;;;;;;;4992536;28;20022;-82
2022/03/16 10:38:50;;;;;;;14.18;9.27;;;;;;;;;;4991313;28;20046;-81
2022/03/16 10:47:00;;;;;;;14.52;9.55;;;;;;;;;;4990918;28;20526;-89
2022/03/16 10:49:30;;;;;;;12.88;9.02;;;;;;;;;;4988351;28;20125;-81
2022/03/16 10:52:05;;;;;;;12.13;8.95;;;;;;;;;;4988961;28;20029;-82
2022/03/16 10:54:32;;;;;;;13.25;8.23;;;;;;;;;;4987081;28;20037;-81
2022/03/16 10:57:02;;;;;;;14.50;8.95;;;;;;;;;;4988685;28;20070;-82
2022/03/16 10:59:29;;;;;;;14.35;9.07;;;;;;;;;;4995645;28;20134;-81
2022/03/16 11:02:05;;;;;;;12.80;8.98;;;;;;;;;;4988740;28;20042;-81
2022/03/16 11:04:34;;;;;;;12.30;9.40;;;;;;;;;;4988598;28;20095;-86
2022/03/16 11:07:00;;;;;;;12.73;8.63;;;;;;;;;;4982348;28;20034;-81
2022/03/16 11:09:27;;;;;;;13.40;9.27;;;;;;;;;;5023905;28;20482;-82
2022/03/16 11:14:38;;;;;;;12.35;9.05;;;;;;;;;;4994109;28;20033;-81
2022/03/16 11:17:04;;;;;;;11.25;8.32;;;;;;;;;;4990270;28;20027;-82
2022/03/16 11:19:30;;;;;;;12.80;9.13;;;;;;;;;;4992186;28;20026;-82
2022/03/16 11:22:04;;;;;;;14.73;9.23;;;;;;;;;;4989828;28;20121;-81
2022/03/16 11:24:35;;;;;;;13.07;9.00;;;;;;;;;;4989728;28;20483;-81
2022/03/16 11:27:24;;;;;;;12.90;9.48;;;;;;;;;;5023234;28;20151;-83
2022/03/16 11:30:12;;;;;;;13.05;9.02;;;;;;;;;;4987750;28;20026;-88
2022/03/16 11:32:39;;;;;;;14.50;9.32;;;;;;;;;;4988053;28;20503;-81
2022/03/16 11:35:17;;;;;;;13.27;9.40;;;;;;;;;;5006544;28;20034;-89
2022/03/16 11:37:51;;;;;;;13.57;9.75;;;;;;;;;;4991531;28;20026;-86
2022/03/16 11:40:22;;;;;;;13.80;9.60;;;;;;;;;;4990789;28;20032;-81
2022/03/16 11:43:11;;;;;;;11.50;8.68;;;;;;;;;;4987740;28;20133;-83
2022/03/16 11:45:41;;;;;;;14.20;9.63;;;;;;;;;;5018330;28;20044;-81
2022/03/16 11:48:28;;;;;;;14.63;10.07;;;;;;;;;;4986711;28;20118;-81
2022/03/16 11:51:09;;;;;;;14.40;10.13;;;;;;;;;;4990848;28;20030;-86
2022/03/16 11:53:51;;;;;;;14.35;9.93;;;;;;;;;;4987698;28;20030;-86
2022/03/16 11:56:34;;;;;;;14.13;10.48;;;;;;;;;;4998007;28;20036;-80
2022/03/16 11:59:03;;;;;;;16.00;10.13;;;;;;;;;;4992064;28;20391;-87
2022/03/16 12:01:33;;;;;;;13.48;10.05;;;;;;;;;;4991772;28;20490;-82
2022/03/16 12:04:15;;;;;;;13.82;10.30;;;;;;;;;;4990094;28;20033;-80
2022/03/16 12:07:02;;;;;;;14.48;10.60;;;;;;;;;;4993428;28;20034;-83
2022/03/16 12:09:55;;;;;;;13.43;10.57;;;;;;;;;;4992588;28;20439;-82
2022/03/16 12:15:37;;;;;;;15.90;10.68;;;;;;;;;;4998054;28;20160;-82
2022/03/16 12:18:07;;;;;;;14.15;10.80;;;;;;;;;;5025210;28;20117;-82
2022/03/16 12:21:05;;;;;;;13.20;10.05;;;;;;;;;;4991179;28;20038;-81
2022/03/16 12:23:49;;;;;;;14.18;10.02;;;;;;;;;;4977667;28;20046;-78
2022/03/16 12:26:20;;;;;;;13.68;10.02;;;;;;;;;;4988055;28;20038;-88
2022/03/16 12:28:59;;;;;;;12.90;10.00;;;;;;;;;;4990356;28;20030;-80
2022/03/16 12:31:26;;;;;;;17.00;10.70;;;;;;;;;;4992570;28;20026;-81
2022/03/16 12:33:55;;;;;;;15.43;10.02;;;;;;;;;;4991003;28;20037;-82
2022/03/16 12:36:29;;;;;;;15.82;10.57;;;;;;;;;;5021306;28;20073;-80
2022/03/16 12:38:58;;;;;;;14.98;10.52;;;;;;;;;;4993423;28;20079;-84
2022/03/16 12:44:11;;;;;;;14.57;9.70;;;;;;;;;;4996049;28;20049;-81
2022/03/16 12:46:49;;;;;;;13.82;9.90;;;;;;;;;;5024552;28;20030;-88
2022/03/16 12:49:19;;;;;;;15.25;10.15;;;;;;;;;;4996598;28;20050;-90
2022/03/16 12:51:48;;;;;;;15.18;9.90;;;;;;;;;;4978195;28;20031;-82
2022/03/16 12:54:26;;;;;;;13.85;9.80;;;;;;;;;;4981197;28;20033;-87
2022/03/16 12:56:53;;;;;;;14.10;9.85;;;;;;;;;;4983199;28;20046;-85
2022/03/16 12:59:26;;;;;;;13.65;10.82;;;;;;;;;;4997712;28;20108;-84
2022/03/16 13:01:54;;;;;;;12.65;9.65;;;;;;;;;;5013678;28;20057;-81
2022/03/16 13:04:23;;;;;;;14.27;9.95;;;;;;;;;;4985866;28;20562;-81
2022/03/16 13:06:51;;;;;;;13.15;9.77;;;;;;;;;;4977165;28;20027;-84
2022/03/16 13:09:16;;;;;;;15.07;9.43;;;;;;;;;;4984240;28;20026;-86
2022/03/16 13:11:42;;;;;;;15.30;9.85;;;;;;;;;;4983611;28;20053;-86
2022/03/16 13:14:19;;;;;;;14.60;9.93;;;;;;;;;;4975019;28;20114;-84
2022/03/16 13:16:47;;;;;;;13.13;9.38;;;;;;;;;;4981429;28;20040;-90
2022/03/16 13:19:24;;;;;;;15.13;9.73;;;;;;;;;;5016967;28;20037;-88
2022/03/16 13:22:05;;;;;;;13.68;10.32;;;;;;;;;;4979975;28;20384;-83
2022/03/16 13:24:51;;;;;;;14.82;10.38;;;;;;;;;;5015586;28;20049;-82
2022/03/16 13:27:23;;;;;;;13.02;9.30;;;;;;;;;;4981783;28;20042;-84
2022/03/16 13:29:50;;;;;;;15.03;9.40;;;;;;;;;;4984126;28;20026;-84
2022/03/16 13:32:18;;;;;;;13.73;9.50;;;;;;;;;;4981944;28;20327;-87
2022/03/16 13:34:43;;;;;;;20.00;9.77;;;;;;;;;;5007842;28;20282;-83
2022/03/16 13:37:29;;;;;;;14.70;9.32;;;;;;;;;;4979246;28;20061;-85
2022/03/16 13:40:02;;;;;;;15.63;9.35;;;;;;;;;;4981148;28;20057;-81
2022/03/16 13:42:29;;;;;;;13.52;9.68;;;;;;;;;;4991546;28;20137;-84
2022/03/16 13:45:30;;;;;;;12.07;9.52;;;;;;;;;;4981074;28;20042;-82
2022/03/16 13:48:06;;;;;;;13.18;9.13;;;;;;;;;;4998712;28;20083;-80
2022/03/16 13:50:31;;;;;;;14.13;9.73;;;;;;;;;;4981174;28;20034;-87
2022/03/16 13:53:11;;;;;;;13.43;9.63;;;;;;;;;;5004157;28;20041;-82
2022/03/16 13:55:36;;;;;;;13.70;10.07;;;;;;;;;;4981549;28;20022;-85
2022/03/16 13:58:09;;;;;;;12.27;9.65;;;;;;;;;;4979533;28;20421;-87
2022/03/16 14:00:44;;;;;;;13.93;10.05;;;;;;;;;;4982152;28;20061;-85
2022/03/16 14:03:11;;;;;;;14.95;10.27;;;;;;;;;;5014291;28;20542;-88
2022/03/16 14:05:40;;;;;;;14.73;9.45;;;;;;;;;;4979982;28;20045;-79
2022/03/16 14:08:10;;;;;;;16.25;9.45;;;;;;;;;;4989078;28;20027;-84
2022/03/16 14:10:37;;;;;;;14.02;9.40;;;;;;;;;;4985988;28;20509;-84
2022/03/16 14:13:08;;;;;;;14.00;8.68;;;;;;;;;;4992372;28;20112;-87
2022/03/16 14:15:33;;;;;;;11.93;8.90;;;;;;;;;;4990311;28;20045;-84
2022/03/16 14:18:17;;;;;;;14.02;9.05;;;;;;;;;;4985633;28;20034;-87
2022/03/16 14:20:46;;;;;;;11.82;8.90;;;;;;;;;;4988212;28;20030;-87
2022/03/16 14:23:11;;;;;;;13.50;8.50;;;;;;;;;;4984941;28;20113;-79
2022/03/16 14:25:39;;;;;;;12.98;8.88;;;;;;;;;;4988508;28;20130;-87
2022/03/16 14:28:06;;;;;;;15.75;9.75;;;;;;;;;;4986845;28;20441;-84
2022/03/16 14:30:45;;;;;;;15.25;10.38;;;;;;;;;;4989156;28;20062;-82
2022/03/16 14:33:10;;;;;;;15.15;9.95;;;;;;;;;;4988236;28;20026;-85
2022/03/16 14:35:38;;;;;;;12.98;9.88;;;;;;;;;;4985970;28;20514;-81
2022/03/16 14:38:05;;;;;;;12.70;9.20;;;;;;;;;;4988211;28;20053;-82
2022/03/16 14:40:32;;;;;;;12.52;9.48;;;;;;;;;;4991198;28;20495;-84